• Join FlightAware (Why Join?)
  • Login
  • US Flag 
06:28PM EST


 

Airport Tracker/Info


-or-


 

Live Flight TrackerFlight Track Log ✈ NGF0DR ✈ 28-Aug-2013 ✈ KBKL - KCHO

Flight Track Log - Related Links

Times and Time Zones

All times are in EDT time to prevent confusion due to time zone crossing. See the NGF0DR flight status page for this flight to view local times or setup timezone preferences in your user account.

Time Position Orientation Groundspeed Altitude Reporting Facility
EDT Latitude Longitude Course Direction KTS MPH feet Rate Location/Type
08:45AM 41.5128 -81.6922 302° West 93 107 900  Level Cleveland Center
08:46AM 41.5208 -81.7092 302° West 109 125 1,300 840 Climbing Cleveland Center
08:47AM 41.5561 -81.7125 356° North 128 147 2,200 840 Climbing Cleveland Center
08:48AM 41.5833 -81.7103 North 135 155 3,000 780 Climbing Cleveland Center
08:49AM 41.5711 -81.6711 113° Southeast 177 204 3,800 780 Climbing Cleveland Center
08:50AM 41.5256 -81.6619 171° South 152 175 4,600 780 Climbing Cleveland Center
08:51AM 41.4944 -81.6228 137° Southeast 165 190 5,500 780 Climbing Cleveland Center
08:52AM 41.4594 -81.5833 140° Southeast 165 190 6,200 720 Climbing Cleveland Center
08:53AM 41.4222 -81.5439 142° Southeast 168 193 7,000 720 Climbing Cleveland Center
08:54AM 41.3811 -81.4964 139° Southeast 188 216 7,900 660 Climbing Cleveland Center
08:55AM 41.3417 -81.4569 143° Southeast 194 223 8,600 600 Climbing Cleveland Center
08:56AM 41.3003 -81.4067 138° Southeast 189 217 9,100 540 Climbing Cleveland Center
08:57AM 41.2589 -81.3647 143° Southeast 184 212 9,700 720 Climbing Cleveland Center
08:58AM 41.2197 -81.3228 141° Southeast 184 212 10,600 660 Climbing Cleveland Center
08:59AM 41.1803 -81.2811 142° Southeast 184 212 11,100 240 Climbing Cleveland Center
09:00AM 41.1347 -81.2311 140° Southeast 192 221 11,100  Level Cleveland Center
09:01AM 41.0892 -81.1836 142° Southeast 204 235 11,100  Level Cleveland Center
09:02AM 41.0392 -81.1419 148° Southeast 209 241 11,100  Level Cleveland Center
09:03AM 40.9894 -81.0975 146° Southeast 214 246 11,100  Level Cleveland Center
09:04AM 40.9458 -81.0586 146° Southeast 214 246 11,100  Level Cleveland Center
09:05AM 40.9003 -81.0117 142° Southeast 214 246 11,100  Level Cleveland Center
09:06AM 40.8503 -80.9675 146° Southeast 214 246 11,100 -60 Level Cleveland Center
09:07AM 40.8006 -80.9258 148° Southeast 214 246 11,000 -60 Descending Cleveland Center
09:08AM 40.7525 -80.8844 147° Southeast 214 246 11,000  Level Cleveland Center
09:09AM 40.7028 -80.8406 146° Southeast 214 246 11,000  Level Cleveland Center
09:10AM 40.6528 -80.7967 146° Southeast 219 252 11,000  Level Cleveland Center
09:11AM 40.6050 -80.7528 145° Southeast 214 246 11,000  Level Cleveland Center
09:12AM 40.5528 -80.7089 147° Southeast 214 246 11,000  Level Cleveland Center
09:13AM 40.5028 -80.6678 148° Southeast 214 246 11,100  Climbing Cleveland Center
09:14AM 40.4528 -80.6214 145° Southeast 214 246 11,000 -60 Descending Cleveland Center
09:16AM 40.4006 -80.5761 147° Southeast  Level FlightAware Approximate
09:19AM 40.1878 -80.3900 147° Southeast 240 276 11,000  Level Cleveland Center
09:20AM 40.1336 -80.3469 149° Southeast 234 269 11,000  Level Cleveland Center
09:21AM 40.0814 -80.3008 146° Southeast 234 269 11,000  Level Cleveland Center
09:22AM 40.0314 -80.2578 147° Southeast 229 264 11,000  Level Cleveland Center
09:23AM 40.1193 -80.3332 147° Southeast  Level FlightAware Approximate
09:23AM 39.9789 -80.2147 148° Southeast 229 264 11,000  Level Cleveland Center
09:24AM 40.0790 -80.2986 147° Southeast  Level FlightAware Approximate
09:24AM 39.9206 -80.1661 147° Southeast 229 264 11,000  Level Cleveland Center
09:25AM 39.8683 -80.1206 146° Southeast 229 264 11,000  Level Cleveland Center
09:26AM 39.8158 -80.0778 148° Southeast 229 264 11,000  Level Cleveland Center
09:27AM 39.7656 -80.0322 145° Southeast 229 264 11,000  Level Cleveland Center
09:28AM 39.7133 -79.9894 148° Southeast 229 264 11,000  Level Cleveland Center
09:29AM 39.6653 -79.9494 147° Southeast 224 258 11,000  Level Cleveland Center
09:31AM 39.6094 -79.9042 148° Southeast 209 241 11,000 -60 Level Washington Center
09:31AM 39.5611 -79.8608 145° Southeast 209 241 10,900 -60 Descending Washington Center
09:32AM 39.5128 -79.8122 142° Southeast 209 241 10,900  Level Washington Center
09:34AM 39.4622 -79.7636 143° Southeast 216 249 10,900  Level Washington Center
09:34AM 39.4161 -79.7153 141° Southeast 216 249 10,900  Level Washington Center
09:35AM 39.3675 -79.6669 142° Southeast 216 249 10,900  Level Washington Center
09:37AM 39.3192 -79.6158 141° Southeast 216 249 10,900  Level Washington Center
09:38AM 39.2731 -79.5678 141° Southeast 216 249 11,000  Climbing Washington Center
09:38AM 39.2244 -79.5194 142° Southeast 216 249 11,000  Level Washington Center
09:40AM 39.1761 -79.4714 142° Southeast 216 249 11,100  Climbing Washington Center
09:41AM 39.1278 -79.4206 141° Southeast 216 249 11,000 -60 Descending Washington Center
09:41AM 39.0811 -79.3753 143° Southeast 216 249 11,000  Level Washington Center
09:42AM 39.0325 -79.3300 144° Southeast 228 262 11,100  Climbing Washington Center
09:44AM 38.9839 -79.2822 143° Southeast 228 262 11,000 -60 Descending Washington Center
09:45AM 38.9375 -79.2344 141° Southeast 223 257 11,000  Level Washington Center
09:46AM 38.8889 -79.1867 143° Southeast 217 250 11,100  Climbing Washington Center
09:47AM 38.8444 -79.1419 142° Southeast 217 250 11,000  Descending Washington Center
09:47AM 38.7978 -79.0972 143° Southeast 212 244 11,100  Climbing Washington Center
09:48AM 38.7531 -79.0522 142° Southeast 212 244 11,000 -300 Descending Washington Center
09:50AM 38.7025 -79.0047 144° Southeast 217 250 10,600 -420 Descending Washington Center
09:51AM 38.6536 -78.9547 141° Southeast 217 250 10,200 -300 Descending Washington Center
09:52AM 38.6031 -78.9044 142° Southeast 222 255 10,000 -60 Descending Washington Center
09:53AM 38.5583 -78.8600 142° Southeast 217 250 10,100  Climbing Washington Center
09:54AM 38.5156 -78.8211 145° Southeast 212 244 10,000 -60 Descending Washington Center
09:55AM 38.4750 -78.7794 141° Southeast 206 237 10,000  Level Washington Center
09:56AM 38.4322 -78.7378 143° Southeast 194 223 10,000  Level Washington Center
09:57AM 38.3936 -78.6992 142° Southeast 194 223 10,000 -300 Level Washington Center
09:57AM 38.3489 -78.6575 144° Southeast 194 223 9,500 -780 Descending Washington Center
09:58AM 38.3061 -78.6133 141° Southeast 194 223 8,500 -900 Descending Washington Center
10:00AM 38.2656 -78.5747 143° Southeast 189 217 7,700 -540 Descending Washington Center
10:01AM 38.2000 -78.5000 138° Southeast 153 176 7,100 -480 Descending Potomac TRACON
10:02AM 38.1667 -78.4667 142° Southeast 168 193 6,600 -720 Descending Potomac TRACON
10:03AM 38.1167 -78.4500 165° South 159 183 5,700 -840 Descending Potomac TRACON
10:04AM 38.0667 -78.4500 180° South 172 198 5,000 -540 Descending Potomac TRACON
10:05AM 38.0333 -78.4667 201° Southwest 161 185 4,700 -600 Descending Potomac TRACON
10:06AM 37.9833 -78.4833 195° South 172 198 3,900 -720 Descending Potomac TRACON
10:07AM 37.9500 -78.5000 202° Southwest 158 182 3,300 -300 Descending Potomac TRACON
10:08AM 37.9500 -78.5167 270° West 144 166 3,300  Level Potomac TRACON
10:09AM 37.9833 -78.5167 360° North 143 165 3,300 -240 Level Potomac TRACON
10:10AM 38.0167 -78.5000 21° North 149 171 2,900 -600 Descending Potomac TRACON
10:11AM 38.0500 -78.4833 21° North 132 152 2,200 -660 Descending Potomac TRACON
10:12AM 38.0833 -78.4833 360° North 125 144 1,600 -540 Descending Potomac TRACON
10:13AM 38.1167 -78.4667 21° North 94 108 1,200 -420 Descending Potomac TRACON
10:15AM 38.1333 -78.4500 19° North  Level FlightAware Approximate
10:22AM 38.1386 -78.4529 19° North  Level Estimated
10:23AM 38.1333 -78.4500 19° North  Level FlightAware Approximate
10:24AM 38.1386 -78.4529 19° North  Level Estimated
10:25AM 38.1333 -78.4500 19° North  Level FlightAware Approximate
10:26AM 38.1386 -78.4529 19° North  Level Estimated